createdAt,value
2022-12-14T00:01:28.885Z,10.07
2022-12-14T00:03:56.649Z,10.23
2022-12-14T00:06:25.674Z,10.25
2022-12-14T00:08:53.972Z,9.80
2022-12-14T00:11:22.490Z,10.57
2022-12-14T00:13:54.473Z,10.52
2022-12-14T00:16:23.214Z,9.68
2022-12-14T00:18:52.446Z,10.57
2022-12-14T00:21:20.762Z,10.00
2022-12-14T00:23:48.432Z,10.27
2022-12-14T00:26:17.224Z,11.07
2022-12-14T00:28:45.635Z,10.07
2022-12-14T00:31:13.279Z,9.95
2022-12-14T00:33:41.093Z,9.93
2022-12-14T00:36:09.603Z,9.98
2022-12-14T00:38:37.254Z,10.30
2022-12-14T00:41:05.061Z,10.90
2022-12-14T00:43:32.726Z,9.82
2022-12-14T00:46:00.257Z,10.15
2022-12-14T00:48:28.129Z,10.55
2022-12-14T00:50:56.385Z,10.07
2022-12-14T00:53:24.098Z,10.13
2022-12-14T00:55:51.946Z,10.75
2022-12-14T00:58:20.625Z,9.95
2022-12-14T01:00:48.665Z,10.18
2022-12-14T01:03:16.208Z,9.57
2022-12-14T01:05:48.999Z,9.30
2022-12-14T01:08:16.957Z,10.45
2022-12-14T01:10:44.884Z,10.32
2022-12-14T01:13:12.177Z,9.35
2022-12-14T01:15:43.948Z,10.32
2022-12-14T01:18:11.294Z,10.13
2022-12-14T01:20:38.537Z,10.52
2022-12-14T01:23:05.825Z,9.50
2022-12-14T01:25:33.246Z,9.40
2022-12-14T01:28:00.620Z,10.43
2022-12-14T01:30:27.899Z,10.18
2022-12-14T01:32:55.354Z,9.88
2022-12-14T01:35:22.607Z,9.02
2022-12-14T01:37:49.916Z,10.20
2022-12-14T01:40:17.833Z,10.48
2022-12-14T01:42:45.203Z,10.68
2022-12-14T01:45:17.952Z,10.50
2022-12-14T01:47:46.931Z,10.65
2022-12-14T01:50:27.032Z,9.85
2022-12-14T01:52:57.123Z,9.43
2022-12-14T01:55:48.674Z,10.05
2022-12-14T01:58:21.255Z,9.88
2022-12-14T02:00:51.305Z,9.43
2022-12-14T02:03:21.188Z,9.75
2022-12-14T02:05:52.627Z,9.70
2022-12-14T02:08:21.741Z,9.50
2022-12-14T02:10:50.275Z,10.45
2022-12-14T02:13:21.151Z,10.85
2022-12-14T02:15:48.739Z,10.25
2022-12-14T02:18:19.235Z,10.52
2022-12-14T02:20:55.429Z,10.10
2022-12-14T02:23:44.495Z,9.73
2022-12-14T02:26:30.346Z,10.15
2022-12-14T02:29:16.121Z,9.93
2022-12-14T02:31:54.835Z,10.45
2022-12-14T02:34:41.023Z,9.40
2022-12-14T02:37:14.288Z,10.70
2022-12-14T02:39:43.626Z,9.70
2022-12-14T02:42:15.433Z,9.90
2022-12-14T02:44:45.497Z,9.60
2022-12-14T02:47:25.640Z,9.23
2022-12-14T02:49:53.325Z,10.07
2022-12-14T02:52:30.085Z,10.02
2022-12-14T02:55:01.572Z,10.27
2022-12-14T02:57:42.381Z,9.35
2022-12-14T03:00:09.962Z,9.75
2022-12-14T03:02:39.369Z,10.43
2022-12-14T03:05:09.588Z,9.70
2022-12-14T03:07:37.096Z,9.82
2022-12-14T03:10:23.340Z,9.40
2022-12-14T03:12:55.238Z,9.82
2022-12-14T03:15:24.205Z,9.77
2022-12-14T03:17:53.676Z,10.23
2022-12-14T03:20:23.804Z,10.38
2022-12-14T03:23:23.549Z,10.43
2022-12-14T03:25:50.860Z,10.73
2022-12-14T03:28:21.222Z,9.88
2022-12-14T03:31:00.654Z,9.85
2022-12-14T03:33:28.943Z,10.38
2022-12-14T03:36:04.513Z,9.50
2022-12-14T03:38:36.952Z,9.52
2022-12-14T03:41:36.712Z,11.00
2022-12-14T03:44:10.273Z,9.73
2022-12-14T03:46:41.751Z,10.52
2022-12-14T03:49:11.905Z,10.18
2022-12-14T03:51:48.408Z,9.75
2022-12-14T03:54:15.765Z,10.00
2022-12-14T03:56:42.946Z,10.07
2022-12-14T03:59:15.450Z,10.68
2022-12-14T04:01:46.708Z,9.48
2022-12-14T04:04:19.505Z,10.77
2022-12-14T04:07:15.775Z,10.50
2022-12-14T04:09:43.129Z,10.07
2022-12-14T04:12:36.318Z,10.43
2022-12-14T04:15:28.509Z,8.68
2022-12-14T04:18:16.161Z,10.07
2022-12-14T04:20:47.014Z,10.50
2022-12-14T04:23:37.440Z,9.13
2022-12-14T04:26:06.153Z,10.80
2022-12-14T04:28:56.943Z,9.80
2022-12-14T04:31:26.133Z,10.60
2022-12-14T04:33:57.828Z,10.43
2022-12-14T04:36:37.074Z,10.70
2022-12-14T04:39:09.128Z,9.60
2022-12-14T04:41:38.822Z,10.20
2022-12-14T04:44:13.048Z,9.70
2022-12-14T04:46:41.170Z,10.35
2022-12-14T04:49:09.846Z,10.80
2022-12-14T04:51:37.098Z,9.95
2022-12-14T04:54:09.754Z,9.60
2022-12-14T04:56:47.467Z,9.25
2022-12-14T04:59:14.786Z,10.88
2022-12-14T05:02:00.915Z,9.27
2022-12-14T05:04:42.330Z,9.98
2022-12-14T05:07:09.615Z,10.70
2022-12-14T05:09:42.760Z,10.43
2022-12-14T05:12:10.460Z,10.73
2022-12-14T05:14:41.204Z,11.25
2022-12-14T05:17:09.528Z,11.25
2022-12-14T05:19:37.865Z,10.75
2022-12-14T05:22:06.709Z,11.80
2022-12-14T05:24:34.157Z,10.55
2022-12-14T05:27:01.527Z,10.25
2022-12-14T05:29:28.896Z,10.60
2022-12-14T05:31:56.308Z,10.90
2022-12-14T05:34:23.854Z,10.40
2022-12-14T05:36:51.240Z,10.23
2022-12-14T05:39:18.589Z,9.80
2022-12-14T05:41:46.174Z,10.10
2022-12-14T05:44:13.461Z,11.63
2022-12-14T05:46:40.835Z,10.32
2022-12-14T05:49:08.222Z,10.70
2022-12-14T05:51:35.572Z,9.82
2022-12-14T05:54:02.876Z,10.88
2022-12-14T05:56:30.395Z,11.00
2022-12-14T05:58:58.013Z,10.63
2022-12-14T06:01:25.495Z,10.63
2022-12-14T06:03:53.602Z,11.15
2022-12-14T06:06:21.348Z,10.45
2022-12-14T06:08:48.687Z,10.10
2022-12-14T06:11:17.712Z,10.10
2022-12-14T06:13:45.439Z,10.95
2022-12-14T06:16:16.600Z,9.90
2022-12-14T06:18:44.120Z,10.82
2022-12-14T06:21:11.780Z,10.90
2022-12-14T06:23:39.327Z,10.85
2022-12-14T06:26:07.043Z,10.65
2022-12-14T06:28:34.479Z,10.02
2022-12-14T06:31:02.070Z,10.57
2022-12-14T06:33:30.398Z,10.98
2022-12-14T06:35:57.852Z,10.27
2022-12-14T06:38:25.159Z,10.65
2022-12-14T06:40:52.501Z,11.05
2022-12-14T06:43:20.588Z,10.48
2022-12-14T06:45:47.857Z,10.13
2022-12-14T06:48:15.492Z,10.68
2022-12-14T06:50:42.734Z,11.25
2022-12-14T06:53:13.558Z,10.40
2022-12-14T06:55:40.966Z,11.35
2022-12-14T06:58:10.831Z,11.40
2022-12-14T07:00:38.142Z,11.00
2022-12-14T07:03:05.683Z,10.52
2022-12-14T07:05:33.081Z,10.80
2022-12-14T07:08:00.537Z,11.15
2022-12-14T07:10:28.003Z,10.60
2022-12-14T07:12:55.237Z,11.15
2022-12-14T07:15:22.744Z,10.85
2022-12-14T07:17:50.017Z,10.40
2022-12-14T07:20:17.685Z,11.32
2022-12-14T07:22:44.992Z,11.18
2022-12-14T07:25:16.822Z,9.80
2022-12-14T07:27:44.132Z,10.85
2022-12-14T07:30:11.663Z,11.02
2022-12-14T07:32:38.928Z,10.15
2022-12-14T07:35:07.303Z,11.10
2022-12-14T07:37:36.904Z,10.38
2022-12-14T07:40:04.663Z,11.13
2022-12-14T07:42:31.979Z,9.65
2022-12-14T07:45:01.272Z,10.77
2022-12-14T07:47:31.459Z,11.32
2022-12-14T07:49:58.775Z,11.55
2022-12-14T07:52:26.246Z,11.40
2022-12-14T07:54:53.569Z,12.60
2022-12-14T07:57:20.820Z,14.25
2022-12-14T07:59:52.925Z,31.70
2022-12-14T08:02:24.600Z,43.25
2022-12-14T08:04:51.966Z,42.05
2022-12-14T08:07:19.490Z,64.07
2022-12-14T08:09:46.820Z,66.03
2022-12-14T08:12:14.176Z,60.70
2022-12-14T08:14:41.404Z,49.92
2022-12-14T08:17:08.859Z,30.83
2022-12-14T08:19:36.370Z,17.08
2022-12-14T08:22:03.942Z,13.85
2022-12-14T08:24:31.322Z,12.40
2022-12-14T08:26:58.967Z,12.27
2022-12-14T08:29:26.221Z,12.65
2022-12-14T08:31:56.542Z,12.02
2022-12-14T08:34:24.054Z,11.93
2022-12-14T08:36:51.580Z,12.50
2022-12-14T08:39:19.019Z,13.25
2022-12-14T08:41:46.438Z,12.73
2022-12-14T08:44:17.031Z,12.70
2022-12-14T08:46:44.577Z,12.93
2022-12-14T08:49:13.180Z,12.90
2022-12-14T08:51:40.457Z,11.85
2022-12-14T08:54:07.827Z,12.35
2022-12-14T08:56:35.198Z,13.02
2022-12-14T08:59:02.682Z,12.80
2022-12-14T09:01:34.049Z,13.13
2022-12-14T09:04:08.510Z,12.75
2022-12-14T09:06:37.342Z,12.40
2022-12-14T09:09:09.150Z,11.55
2022-12-14T09:11:40.991Z,12.45
2022-12-14T09:14:08.247Z,10.77
2022-12-14T09:16:35.779Z,14.23
2022-12-14T09:19:03.354Z,12.98
2022-12-14T09:21:31.729Z,12.73
2022-12-14T09:23:59.990Z,11.98
2022-12-14T09:26:28.109Z,12.02
2022-12-14T09:28:56.657Z,12.48
2022-12-14T09:31:25.146Z,13.35
2022-12-14T09:33:52.696Z,12.65
2022-12-14T09:36:21.344Z,12.65
2022-12-14T09:38:51.860Z,12.55
2022-12-14T09:41:35.317Z,12.07
2022-12-14T09:44:18.813Z,12.23
2022-12-14T09:46:49.419Z,12.45
2022-12-14T09:49:32.554Z,11.75
2022-12-14T09:52:01.898Z,10.90
2022-12-14T09:54:34.320Z,10.75
2022-12-14T09:57:24.485Z,11.65
2022-12-14T09:59:53.173Z,10.68
2022-12-14T10:02:33.157Z,11.50
2022-12-14T10:05:16.550Z,12.13
2022-12-14T10:07:52.878Z,10.25
2022-12-14T10:10:40.552Z,10.77
2022-12-14T10:13:26.680Z,9.95
2022-12-14T10:15:57.191Z,10.25
2022-12-14T10:21:28.425Z,9.55
2022-12-14T10:23:57.507Z,9.75
2022-12-14T10:26:28.325Z,8.80
2022-12-14T10:29:03.522Z,9.30
2022-12-14T10:31:35.498Z,9.40
2022-12-14T10:34:13.788Z,9.15
2022-12-14T10:36:50.843Z,9.80
2022-12-14T10:39:22.590Z,9.35
2022-12-14T10:42:01.921Z,8.93
2022-12-14T10:44:35.430Z,8.40
2022-12-14T10:47:15.372Z,8.40
2022-12-14T10:49:58.265Z,8.43
2022-12-14T10:52:29.116Z,9.23
2022-12-14T10:54:58.061Z,8.48
2022-12-14T10:57:29.441Z,8.40
2022-12-14T11:00:08.461Z,8.82
2022-12-14T11:02:39.506Z,8.88
2022-12-14T11:05:37.241Z,7.55
2022-12-14T11:08:08.464Z,7.95
2022-12-14T11:10:36.971Z,8.43
2022-12-14T11:13:06.171Z,7.97
2022-12-14T11:15:34.309Z,27.35
2022-12-14T11:18:03.967Z,12.88
2022-12-14T11:20:31.881Z,18.67
2022-12-14T11:23:06.188Z,19.83
2022-12-14T11:25:43.721Z,13.88
2022-12-14T11:28:36.088Z,8.80
2022-12-14T11:31:04.721Z,8.55
2022-12-14T11:33:34.373Z,9.63
2022-12-14T11:36:01.749Z,9.85
2022-12-14T11:38:30.457Z,9.77
2022-12-14T11:40:58.315Z,7.93
2022-12-14T11:43:28.610Z,7.90
2022-12-14T11:45:57.532Z,7.93
2022-12-14T11:48:26.849Z,8.40
2022-12-14T11:50:55.753Z,7.95
2022-12-14T11:53:23.799Z,8.20
2022-12-14T11:55:54.303Z,7.15
2022-12-14T11:58:24.492Z,7.93
2022-12-14T12:00:53.218Z,8.43
2022-12-14T12:03:20.681Z,8.43
2022-12-14T12:05:48.060Z,14.35
2022-12-14T12:08:35.480Z,9.70
2022-12-14T12:11:05.106Z,10.18
2022-12-14T12:13:36.672Z,10.60
2022-12-14T12:16:07.152Z,17.85
2022-12-14T12:18:46.035Z,8.43
2022-12-14T12:21:23.147Z,8.63
2022-12-14T12:23:53.373Z,8.02
2022-12-14T12:26:23.331Z,9.23
2022-12-14T12:29:11.005Z,8.05
2022-12-14T12:31:58.883Z,8.50
2022-12-14T12:34:33.857Z,7.88
2022-12-14T12:37:25.833Z,7.88
2022-12-14T12:39:53.135Z,8.32
2022-12-14T12:42:30.523Z,7.80
2022-12-14T12:45:21.046Z,7.82
2022-12-14T12:47:56.764Z,14.85
2022-12-14T12:50:27.276Z,11.98
2022-12-14T12:53:03.899Z,9.63
2022-12-14T12:55:35.937Z,9.60
2022-12-14T12:58:04.041Z,19.48
2022-12-14T13:00:32.628Z,12.23
2022-12-14T13:03:02.069Z,12.20
2022-12-14T13:05:47.815Z,10.15
2022-12-14T13:08:24.782Z,9.88
2022-12-14T13:11:25.705Z,9.27
2022-12-14T13:13:44.260Z,7.03
2022-12-14T13:16:15.649Z,7.38
2022-12-14T13:21:43.957Z,8.75
2022-12-14T13:24:18.813Z,8.60
2022-12-14T13:26:58.773Z,10.75
2022-12-14T13:29:50.048Z,8.63
2022-12-14T13:32:41.830Z,10.35
2022-12-14T13:35:41.377Z,10.48
2022-12-14T13:38:32.969Z,9.30
2022-12-14T13:41:10.492Z,8.48
2022-12-14T13:43:40.551Z,8.73
2022-12-14T13:46:12.664Z,8.90
2022-12-14T13:48:41.574Z,8.32
2022-12-14T13:51:11.739Z,9.60
2022-12-14T13:53:44.118Z,12.02
2022-12-14T13:56:27.849Z,9.88
2022-12-14T13:59:01.305Z,10.98
2022-12-14T14:01:46.942Z,7.07
2022-12-14T14:04:14.694Z,6.40
2022-12-14T14:06:43.176Z,6.03
2022-12-14T14:09:29.466Z,5.85
2022-12-14T14:12:16.751Z,6.03
2022-12-14T14:14:57.561Z,6.32
2022-12-14T14:17:37.064Z,6.45
2022-12-14T14:20:27.288Z,7.00
2022-12-14T14:23:23.842Z,6.55
2022-12-14T14:25:52.672Z,6.38
2022-12-14T14:28:29.683Z,6.47
2022-12-14T14:31:00.005Z,6.72
2022-12-14T14:33:49.497Z,7.05
2022-12-14T14:36:30.620Z,7.38
2022-12-14T14:38:59.511Z,7.40
2022-12-14T14:41:30.970Z,7.20
2022-12-14T14:44:00.852Z,6.72
2022-12-14T14:46:36.745Z,7.55
2022-12-14T14:49:05.066Z,6.63
2022-12-14T14:51:35.660Z,6.85
2022-12-14T14:55:06.480Z,7.60
2022-12-14T14:57:25.748Z,8.32
2022-12-14T14:59:58.716Z,8.38
2022-12-14T15:02:33.789Z,8.63
2022-12-14T15:07:49.399Z,8.70
2022-12-14T15:10:35.924Z,7.90
2022-12-14T15:13:06.415Z,6.70
2022-12-14T15:15:33.675Z,7.53
2022-12-14T15:18:17.024Z,7.43
2022-12-14T15:20:50.438Z,6.72
2022-12-14T15:23:18.007Z,6.85
2022-12-14T15:25:45.427Z,7.03
2022-12-14T15:28:19.221Z,6.40
2022-12-14T15:30:48.231Z,6.82
2022-12-14T15:33:24.248Z,6.68
2022-12-14T15:35:51.928Z,6.40
2022-12-14T15:38:28.477Z,7.45
2022-12-14T15:40:57.143Z,7.72
2022-12-14T15:43:25.284Z,7.57
2022-12-14T15:45:53.777Z,7.57
2022-12-14T15:48:25.475Z,6.97
2022-12-14T15:50:57.626Z,6.47
2022-12-14T15:53:33.887Z,6.63
2022-12-14T15:56:10.044Z,7.15
2022-12-14T15:58:40.635Z,7.93
2022-12-14T16:01:13.329Z,6.68
2022-12-14T16:03:42.472Z,7.50
2022-12-14T16:06:10.689Z,6.97
2022-12-14T16:08:39.312Z,7.45
2022-12-14T16:11:10.313Z,7.85
2022-12-14T16:13:39.919Z,7.60
2022-12-14T16:16:12.109Z,6.90
2022-12-14T16:18:50.698Z,7.45
2022-12-14T16:21:30.557Z,7.03
2022-12-14T16:23:58.605Z,7.68
2022-12-14T16:26:38.851Z,7.53
2022-12-14T16:29:07.417Z,7.80
2022-12-14T16:31:34.856Z,8.23
2022-12-14T16:34:10.321Z,9.02
2022-12-14T16:36:38.098Z,8.75
2022-12-14T16:39:16.063Z,9.95
2022-12-14T16:41:45.407Z,9.15
2022-12-14T16:44:31.471Z,9.85
2022-12-14T16:47:04.813Z,9.63
2022-12-14T16:49:33.649Z,10.65
2022-12-14T16:52:09.366Z,9.70
2022-12-14T16:54:37.997Z,10.93
2022-12-14T16:57:06.698Z,10.55
2022-12-14T16:59:36.884Z,11.10
2022-12-14T17:02:05.216Z,11.07
2022-12-14T17:04:35.070Z,11.25
2022-12-14T17:07:02.774Z,10.80
2022-12-14T17:09:33.383Z,10.70
2022-12-14T17:12:02.527Z,11.40
2022-12-14T17:14:29.856Z,11.18
2022-12-14T17:17:00.757Z,11.50
2022-12-14T17:19:32.702Z,9.10
2022-12-14T17:22:00.420Z,10.23
2022-12-14T17:24:27.770Z,10.20
2022-12-14T17:26:55.154Z,7.32
2022-12-14T17:29:27.120Z,9.13
2022-12-14T17:31:57.127Z,8.38
2022-12-14T17:34:25.336Z,7.38
2022-12-14T17:36:52.625Z,8.88
2022-12-14T17:39:20.629Z,7.95
2022-12-14T17:41:48.406Z,7.70
2022-12-14T17:44:16.706Z,7.78
2022-12-14T17:46:45.526Z,7.47
2022-12-14T17:49:14.160Z,7.93
2022-12-14T17:51:42.547Z,8.15
2022-12-14T17:54:17.519Z,7.28
2022-12-14T17:56:45.636Z,7.28
2022-12-14T17:59:13.145Z,6.72
2022-12-14T18:01:41.681Z,8.35
2022-12-14T18:04:09.288Z,7.78
2022-12-14T18:06:36.745Z,8.20
2022-12-14T18:09:05.925Z,8.02
2022-12-14T18:11:33.637Z,7.78
2022-12-14T18:14:01.243Z,9.38
2022-12-14T18:16:29.395Z,8.70
2022-12-14T18:18:58.144Z,9.30
2022-12-14T18:21:26.578Z,9.80
2022-12-14T18:23:54.198Z,9.43
2022-12-14T18:26:22.264Z,9.30
2022-12-14T18:28:50.178Z,10.07
2022-12-14T18:31:26.120Z,9.88
2022-12-14T18:33:53.564Z,9.40
2022-12-14T18:36:21.652Z,9.80
2022-12-14T18:38:49.748Z,10.73
2022-12-14T18:41:21.489Z,9.35
2022-12-14T18:43:48.938Z,8.63
2022-12-14T18:46:16.537Z,7.50
2022-12-14T18:48:44.511Z,8.25
2022-12-14T18:51:14.039Z,8.15
2022-12-14T18:53:42.765Z,21.35
2022-12-14T18:56:11.713Z,12.32
2022-12-14T18:58:41.957Z,9.40
2022-12-14T19:01:14.057Z,8.70
2022-12-14T19:03:41.578Z,8.27
2022-12-14T19:06:43.057Z,6.85
2022-12-14T19:08:58.920Z,6.70
2022-12-14T19:11:26.126Z,7.00
2022-12-14T19:13:53.622Z,8.23
2022-12-14T19:16:21.139Z,7.18
2022-12-14T19:18:48.430Z,7.70
2022-12-14T19:21:15.734Z,7.10
2022-12-14T19:23:43.198Z,6.18
2022-12-14T19:26:10.550Z,7.10
2022-12-14T19:28:38.252Z,7.05
2022-12-14T19:31:05.702Z,6.75
2022-12-14T19:33:35.820Z,7.82
2022-12-14T19:36:05.839Z,9.45
2022-12-14T19:38:34.897Z,9.07
2022-12-14T19:41:04.170Z,10.05
2022-12-14T19:43:32.212Z,7.30
2022-12-14T19:45:59.816Z,7.78
2022-12-14T19:48:27.404Z,6.55
2022-12-14T19:50:54.624Z,6.85
2022-12-14T19:53:23.978Z,6.80
2022-12-14T19:55:54.949Z,8.48
2022-12-14T19:58:24.879Z,11.32
2022-12-14T20:00:52.385Z,8.10
2022-12-14T20:03:22.937Z,7.20
2022-12-14T20:05:55.060Z,7.82
2022-12-14T20:08:22.636Z,8.73
2022-12-14T20:10:50.002Z,14.35
2022-12-14T20:13:17.394Z,7.80
2022-12-14T20:15:48.450Z,7.43
2022-12-14T20:18:15.820Z,8.18
2022-12-14T20:20:43.345Z,7.28
2022-12-14T20:23:10.674Z,7.57
2022-12-14T20:25:38.081Z,7.60
2022-12-14T20:28:05.822Z,7.55
2022-12-14T20:30:33.876Z,7.18
2022-12-14T20:33:01.385Z,6.68
2022-12-14T20:35:28.786Z,7.45
2022-12-14T20:37:56.370Z,7.30
2022-12-14T20:40:23.563Z,7.03
2022-12-14T20:42:51.383Z,6.13
2022-12-14T20:45:18.697Z,6.90
2022-12-14T20:47:46.056Z,6.35
2022-12-14T20:50:13.336Z,6.90
2022-12-14T20:52:40.644Z,5.53
2022-12-14T20:55:08.079Z,6.28
2022-12-14T20:57:35.438Z,6.00
2022-12-14T21:00:02.813Z,5.65
2022-12-14T21:02:30.314Z,6.13
2022-12-14T21:04:57.900Z,6.88
2022-12-14T21:07:26.529Z,6.35
2022-12-14T21:09:53.923Z,6.78
2022-12-14T21:12:21.492Z,7.20
2022-12-14T21:14:52.216Z,7.40
2022-12-14T21:17:21.358Z,8.18
2022-12-14T21:19:48.615Z,7.80
2022-12-14T21:22:17.448Z,7.70
2022-12-14T21:25:02.458Z,7.10
2022-12-14T21:27:30.763Z,7.88
2022-12-14T21:29:58.185Z,6.90
2022-12-14T21:32:25.826Z,7.80
2022-12-14T21:34:53.137Z,8.48
2022-12-14T21:37:20.927Z,7.80
2022-12-14T21:39:54.942Z,7.07
2022-12-14T21:42:24.090Z,7.35
2022-12-14T21:44:52.567Z,6.00
2022-12-14T21:47:21.427Z,6.63
2022-12-14T21:49:49.393Z,6.63
2022-12-14T21:52:19.323Z,6.25
2022-12-14T21:54:46.696Z,5.53
2022-12-14T21:57:33.752Z,5.40
2022-12-14T22:00:01.209Z,6.10
2022-12-14T22:02:28.996Z,5.82
2022-12-14T22:04:56.724Z,7.15
2022-12-14T22:07:24.958Z,5.40
2022-12-14T22:09:52.346Z,6.80
2022-12-14T22:12:19.627Z,5.93
2022-12-14T22:14:47.112Z,6.32
2022-12-14T22:17:14.773Z,6.75
2022-12-14T22:19:42.612Z,5.80
2022-12-14T22:22:16.377Z,5.75
2022-12-14T22:24:44.777Z,4.63
2022-12-14T22:27:12.908Z,6.60
2022-12-14T22:29:40.286Z,6.35
2022-12-14T22:32:08.640Z,6.43
2022-12-14T22:34:36.842Z,6.47
2022-12-14T22:37:04.331Z,6.18
2022-12-14T22:39:51.800Z,5.30
2022-12-14T22:42:27.722Z,5.53
2022-12-14T22:44:55.163Z,5.15
2022-12-14T22:47:22.714Z,5.53
2022-12-14T22:49:50.029Z,5.38
2022-12-14T22:52:22.904Z,5.40
2022-12-14T22:54:51.840Z,6.32
2022-12-14T22:57:19.475Z,5.75
2022-12-14T22:59:50.657Z,5.72
2022-12-14T23:02:18.220Z,5.80
2022-12-14T23:04:45.583Z,5.78
2022-12-14T23:07:17.453Z,5.57
2022-12-14T23:10:03.535Z,5.43
2022-12-14T23:12:49.798Z,5.88
2022-12-14T23:15:36.381Z,6.78
2022-12-14T23:18:24.074Z,5.90
2022-12-14T23:21:10.196Z,6.13
2022-12-14T23:24:00.209Z,6.85
2022-12-14T23:26:46.357Z,6.03
2022-12-14T23:29:32.794Z,5.97
2022-12-14T23:32:19.075Z,6.95
2022-12-14T23:35:05.120Z,6.82
2022-12-14T23:37:51.459Z,7.00
2022-12-14T23:40:37.587Z,7.45
2022-12-14T23:43:34.760Z,8.10
2022-12-14T23:46:21.744Z,7.63
2022-12-14T23:49:13.546Z,8.27
2022-12-14T23:52:01.651Z,8.48
2022-12-14T23:54:47.946Z,8.85
2022-12-14T23:57:34.327Z,8.55
